sensor_id;sensor_type;location;lat;lon;timestamp;temperature;humidity
1878;DHT22;939;51.426;6.972;2023-04-07T00:00:19;9.00;99.90
1878;DHT22;939;51.426;6.972;2023-04-07T00:02:46;9.00;99.90
1878;DHT22;939;51.426;6.972;2023-04-07T00:05:13;9.10;99.90
1878;DHT22;939;51.426;6.972;2023-04-07T00:07:40;9.20;99.90
1878;DHT22;939;51.426;6.972;2023-04-07T00:10:07;9.10;99.90
1878;DHT22;939;51.426;6.972;2023-04-07T00:12:34;9.10;99.90
1878;DHT22;939;51.426;6.972;2023-04-07T00:15:01;9.10;99.90
1878;DHT22;939;51.426;6.972;2023-04-07T00:17:30;9.10;99.90
1878;DHT22;939;51.426;6.972;2023-04-07T00:19:57;9.10;99.90
1878;DHT22;939;51.426;6.972;2023-04-07T00:22:23;9.10;99.90
1878;DHT22;939;51.426;6.972;2023-04-07T00:24:50;9.00;99.90
1878;DHT22;939;51.426;6.972;2023-04-07T00:27:17;9.10;99.90
1878;DHT22;939;51.426;6.972;2023-04-07T00:29:44;9.00;99.90
1878;DHT22;939;51.426;6.972;2023-04-07T00:32:11;9.20;99.90
1878;DHT22;939;51.426;6.972;2023-04-07T00:34:40;9.10;99.90
1878;DHT22;939;51.426;6.972;2023-04-07T00:37:06;9.20;99.90
1878;DHT22;939;51.426;6.972;2023-04-07T00:39:33;9.10;99.90
1878;DHT22;939;51.426;6.972;2023-04-07T00:42:02;9.10;99.90
1878;DHT22;939;51.426;6.972;2023-04-07T00:44:29;9.10;99.90
1878;DHT22;939;51.426;6.972;2023-04-07T00:46:56;9.20;99.90
1878;DHT22;939;51.426;6.972;2023-04-07T00:49:24;9.30;99.90
1878;DHT22;939;51.426;6.972;2023-04-07T00:51:54;9.20;99.90
1878;DHT22;939;51.426;6.972;2023-04-07T00:54:21;9.30;99.90
1878;DHT22;939;51.426;6.972;2023-04-07T00:56:48;9.20;99.90
1878;DHT22;939;51.426;6.972;2023-04-07T00:59:15;9.20;99.90
1878;DHT22;939;51.426;6.972;2023-04-07T01:01:45;9.40;99.90
1878;DHT22;939;51.426;6.972;2023-04-07T01:04:19;9.50;99.90
1878;DHT22;939;51.426;6.972;2023-04-07T01:06:50;9.60;99.90
1878;DHT22;939;51.426;6.972;2023-04-07T01:09:26;9.60;99.90
1878;DHT22;939;51.426;6.972;2023-04-07T01:12:01;9.70;99.90
1878;DHT22;939;51.426;6.972;2023-04-07T01:14:34;9.80;99.90
1878;DHT22;939;51.426;6.972;2023-04-07T01:17:04;9.80;99.90
1878;DHT22;939;51.426;6.972;2023-04-07T01:19:34;9.80;99.90
1878;DHT22;939;51.426;6.972;2023-04-07T01:22:03;9.80;99.90
1878;DHT22;939;51.426;6.972;2023-04-07T01:24:53;9.90;99.90
1878;DHT22;939;51.426;6.972;2023-04-07T01:27:35;9.80;99.90
1878;DHT22;939;51.426;6.972;2023-04-07T01:30:08;9.90;99.90
1878;DHT22;939;51.426;6.972;2023-04-07T01:32:37;9.90;99.90
1878;DHT22;939;51.426;6.972;2023-04-07T01:35:06;10.00;99.90
1878;DHT22;939;51.426;6.972;2023-04-07T01:37:36;10.00;99.90
1878;DHT22;939;51.426;6.972;2023-04-07T01:40:06;10.00;99.90
1878;DHT22;939;51.426;6.972;2023-04-07T01:42:35;10.10;99.90
1878;DHT22;939;51.426;6.972;2023-04-07T01:45:07;10.10;99.90
1878;DHT22;939;51.426;6.972;2023-04-07T01:47:35;10.00;99.90
1878;DHT22;939;51.426;6.972;2023-04-07T01:50:04;10.10;99.90
1878;DHT22;939;51.426;6.972;2023-04-07T01:52:32;10.00;99.90
1878;DHT22;939;51.426;6.972;2023-04-07T01:55:00;10.10;99.90
1878;DHT22;939;51.426;6.972;2023-04-07T01:57:27;10.20;99.90
1878;DHT22;939;51.426;6.972;2023-04-07T01:59:54;10.20;99.90
1878;DHT22;939;51.426;6.972;2023-04-07T02:02:22;10.20;99.90
1878;DHT22;939;51.426;6.972;2023-04-07T02:04:53;10.20;99.90
1878;DHT22;939;51.426;6.972;2023-04-07T02:07:32;10.20;99.90
1878;DHT22;939;51.426;6.972;2023-04-07T02:10:02;10.20;99.90
1878;DHT22;939;51.426;6.972;2023-04-07T02:12:31;10.30;99.90
1878;DHT22;939;51.426;6.972;2023-04-07T02:15:00;10.20;99.90
1878;DHT22;939;51.426;6.972;2023-04-07T02:17:29;10.20;99.90
1878;DHT22;939;51.426;6.972;2023-04-07T02:19:58;10.20;99.90
1878;DHT22;939;51.426;6.972;2023-04-07T02:22:27;10.20;99.90
1878;DHT22;939;51.426;6.972;2023-04-07T02:24:54;10.20;99.90
1878;DHT22;939;51.426;6.972;2023-04-07T02:27:21;10.20;99.90
1878;DHT22;939;51.426;6.972;2023-04-07T02:29:48;10.20;99.90
1878;DHT22;939;51.426;6.972;2023-04-07T02:32:14;10.20;99.90
1878;DHT22;939;51.426;6.972;2023-04-07T02:34:43;10.20;99.90
1878;DHT22;939;51.426;6.972;2023-04-07T02:37:10;10.30;99.90
1878;DHT22;939;51.426;6.972;2023-04-07T02:39:37;10.30;99.90
1878;DHT22;939;51.426;6.972;2023-04-07T02:42:05;10.30;99.90
1878;DHT22;939;51.426;6.972;2023-04-07T02:44:32;10.30;99.90
1878;DHT22;939;51.426;6.972;2023-04-07T02:46:58;10.40;99.90
1878;DHT22;939;51.426;6.972;2023-04-07T02:49:25;10.40;99.90
1878;DHT22;939;51.426;6.972;2023-04-07T02:51:53;10.40;99.90
1878;DHT22;939;51.426;6.972;2023-04-07T02:54:20;10.40;99.90
1878;DHT22;939;51.426;6.972;2023-04-07T02:56:47;10.40;99.90
1878;DHT22;939;51.426;6.972;2023-04-07T02:59:14;10.50;99.90
1878;DHT22;939;51.426;6.972;2023-04-07T03:01:41;10.50;99.90
1878;DHT22;939;51.426;6.972;2023-04-07T03:04:07;10.40;99.90
1878;DHT22;939;51.426;6.972;2023-04-07T03:06:34;10.40;99.90
1878;DHT22;939;51.426;6.972;2023-04-07T03:09:02;10.40;99.90
1878;DHT22;939;51.426;6.972;2023-04-07T03:11:29;10.50;99.90
1878;DHT22;939;51.426;6.972;2023-04-07T03:13:56;10.50;99.90
1878;DHT22;939;51.426;6.972;2023-04-07T03:16:24;10.50;99.90
1878;DHT22;939;51.426;6.972;2023-04-07T03:18:51;10.40;99.90
1878;DHT22;939;51.426;6.972;2023-04-07T03:21:18;10.50;99.90
1878;DHT22;939;51.426;6.972;2023-04-07T03:23:44;10.50;99.90
1878;DHT22;939;51.426;6.972;2023-04-07T03:26:13;10.60;99.90
1878;DHT22;939;51.426;6.972;2023-04-07T03:28:39;10.60;99.90
1878;DHT22;939;51.426;6.972;2023-04-07T03:31:06;10.60;99.90
1878;DHT22;939;51.426;6.972;2023-04-07T03:33:33;10.60;99.90
1878;DHT22;939;51.426;6.972;2023-04-07T03:36:00;10.60;99.90
1878;DHT22;939;51.426;6.972;2023-04-07T03:38:27;10.60;99.90
1878;DHT22;939;51.426;6.972;2023-04-07T03:40:54;10.60;99.90
1878;DHT22;939;51.426;6.972;2023-04-07T03:43:22;10.60;99.90
1878;DHT22;939;51.426;6.972;2023-04-07T03:45:51;10.60;99.90
1878;DHT22;939;51.426;6.972;2023-04-07T03:48:18;10.60;99.90
1878;DHT22;939;51.426;6.972;2023-04-07T03:50:45;10.60;99.90
1878;DHT22;939;51.426;6.972;2023-04-07T03:53:12;10.50;99.90
1878;DHT22;939;51.426;6.972;2023-04-07T03:55:41;10.50;99.90
1878;DHT22;939;51.426;6.972;2023-04-07T03:58:08;10.50;99.90
1878;DHT22;939;51.426;6.972;2023-04-07T04:00:36;10.40;99.90
1878;DHT22;939;51.426;6.972;2023-04-07T04:03:03;10.40;99.90
1878;DHT22;939;51.426;6.972;2023-04-07T04:05:31;10.40;99.90
1878;DHT22;939;51.426;6.972;2023-04-07T04:08:00;10.40;99.90
1878;DHT22;939;51.426;6.972;2023-04-07T04:10:27;10.40;99.90
1878;DHT22;939;51.426;6.972;2023-04-07T04:12:53;10.30;99.90
1878;DHT22;939;51.426;6.972;2023-04-07T04:15:20;10.30;99.90
1878;DHT22;939;51.426;6.972;2023-04-07T04:17:48;10.30;99.90
1878;DHT22;939;51.426;6.972;2023-04-07T04:20:15;10.40;99.90
1878;DHT22;939;51.426;6.972;2023-04-07T04:22:42;10.20;99.90
1878;DHT22;939;51.426;6.972;2023-04-07T04:25:09;10.20;99.90
1878;DHT22;939;51.426;6.972;2023-04-07T04:27:36;10.30;99.90
1878;DHT22;939;51.426;6.972;2023-04-07T04:30:03;10.30;99.90
1878;DHT22;939;51.426;6.972;2023-04-07T04:32:30;10.30;99.90
1878;DHT22;939;51.426;6.972;2023-04-07T04:34:58;10.20;99.90
1878;DHT22;939;51.426;6.972;2023-04-07T04:37:25;10.20;99.90
1878;DHT22;939;51.426;6.972;2023-04-07T04:39:52;10.30;99.90
1878;DHT22;939;51.426;6.972;2023-04-07T04:42:19;10.40;99.90
1878;DHT22;939;51.426;6.972;2023-04-07T04:44:45;10.40;99.90
1878;DHT22;939;51.426;6.972;2023-04-07T04:47:12;10.40;99.90
1878;DHT22;939;51.426;6.972;2023-04-07T04:49:39;10.40;99.90
1878;DHT22;939;51.426;6.972;2023-04-07T04:52:07;10.30;99.90
1878;DHT22;939;51.426;6.972;2023-04-07T04:54:34;10.30;99.90
1878;DHT22;939;51.426;6.972;2023-04-07T04:57:01;10.20;99.90
1878;DHT22;939;51.426;6.972;2023-04-07T04:59:27;10.20;99.90
1878;DHT22;939;51.426;6.972;2023-04-07T05:01:54;10.20;99.90
1878;DHT22;939;51.426;6.972;2023-04-07T05:13:01;10.10;99.90
1878;DHT22;939;51.426;6.972;2023-04-07T05:16:06;10.10;99.90
1878;DHT22;939;51.426;6.972;2023-04-07T05:19:17;10.00;99.90
1878;DHT22;939;51.426;6.972;2023-04-07T05:22:09;10.10;99.90
1878;DHT22;939;51.426;6.972;2023-04-07T05:24:51;10.10;99.90
1878;DHT22;939;51.426;6.972;2023-04-07T05:27:20;10.20;99.90
1878;DHT22;939;51.426;6.972;2023-04-07T05:43:56;10.00;99.90
1878;DHT22;939;51.426;6.972;2023-04-07T05:46:27;10.00;99.90
1878;DHT22;939;51.426;6.972;2023-04-07T05:52:54;10.00;99.90
1878;DHT22;939;51.426;6.972;2023-04-07T08:13:51;10.50;99.90
1878;DHT22;939;51.426;6.972;2023-04-07T11:08:44;11.20;99.90
1878;DHT22;939;51.426;6.972;2023-04-07T11:11:13;11.20;99.90
1878;DHT22;939;51.426;6.972;2023-04-07T11:13:40;11.30;99.90
1878;DHT22;939;51.426;6.972;2023-04-07T11:16:07;11.40;99.90
1878;DHT22;939;51.426;6.972;2023-04-07T11:18:35;11.50;99.90
1878;DHT22;939;51.426;6.972;2023-04-07T11:21:02;11.50;99.90
1878;DHT22;939;51.426;6.972;2023-04-07T11:23:37;11.40;99.90
1878;DHT22;939;51.426;6.972;2023-04-07T11:26:07;11.50;99.90
1878;DHT22;939;51.426;6.972;2023-04-07T11:28:36;11.40;99.90
1878;DHT22;939;51.426;6.972;2023-04-07T11:31:10;11.40;99.90
1878;DHT22;939;51.426;6.972;2023-04-07T11:33:38;11.30;99.90
1878;DHT22;939;51.426;6.972;2023-04-07T11:36:06;11.20;99.90
1878;DHT22;939;51.426;6.972;2023-04-07T11:38:37;11.20;99.90
1878;DHT22;939;51.426;6.972;2023-04-07T11:41:11;11.20;99.90
1878;DHT22;939;51.426;6.972;2023-04-07T11:43:38;11.20;99.90
1878;DHT22;939;51.426;6.972;2023-04-07T11:46:08;11.20;99.90
1878;DHT22;939;51.426;6.972;2023-04-07T11:48:36;11.20;99.90
1878;DHT22;939;51.426;6.972;2023-04-07T11:51:03;11.20;99.90
1878;DHT22;939;51.426;6.972;2023-04-07T11:53:33;11.30;99.90
1878;DHT22;939;51.426;6.972;2023-04-07T11:56:04;11.30;99.90
1878;DHT22;939;51.426;6.972;2023-04-07T11:58:33;11.30;99.90
1878;DHT22;939;51.426;6.972;2023-04-07T12:01:02;11.50;99.90
1878;DHT22;939;51.426;6.972;2023-04-07T12:03:32;11.40;99.90
1878;DHT22;939;51.426;6.972;2023-04-07T12:06:00;11.60;99.90
1878;DHT22;939;51.426;6.972;2023-04-07T12:08:38;11.50;99.90
1878;DHT22;939;51.426;6.972;2023-04-07T12:11:05;11.60;99.90
1878;DHT22;939;51.426;6.972;2023-04-07T12:13:35;11.60;99.90
1878;DHT22;939;51.426;6.972;2023-04-07T12:16:03;11.60;99.90
1878;DHT22;939;51.426;6.972;2023-04-07T12:18:30;11.60;99.90
1878;DHT22;939;51.426;6.972;2023-04-07T12:20:57;11.70;99.90
1878;DHT22;939;51.426;6.972;2023-04-07T12:23:24;11.80;99.90
1878;DHT22;939;51.426;6.972;2023-04-07T12:25:51;11.80;99.90
1878;DHT22;939;51.426;6.972;2023-04-07T12:28:18;11.80;99.90
1878;DHT22;939;51.426;6.972;2023-04-07T12:30:46;11.80;99.90
1878;DHT22;939;51.426;6.972;2023-04-07T12:33:13;11.90;99.90
1878;DHT22;939;51.426;6.972;2023-04-07T12:35:40;11.80;99.90
1878;DHT22;939;51.426;6.972;2023-04-07T12:38:07;11.80;99.90
1878;DHT22;939;51.426;6.972;2023-04-07T12:40:34;11.80;99.90
1878;DHT22;939;51.426;6.972;2023-04-07T12:43:02;11.80;99.90
1878;DHT22;939;51.426;6.972;2023-04-07T12:45:29;11.80;99.90
1878;DHT22;939;51.426;6.972;2023-04-07T12:47:57;11.80;99.90
1878;DHT22;939;51.426;6.972;2023-04-07T12:50:24;11.80;99.90
1878;DHT22;939;51.426;6.972;2023-04-07T12:52:55;11.90;99.90
1878;DHT22;939;51.426;6.972;2023-04-07T12:55:32;11.90;99.90
1878;DHT22;939;51.426;6.972;2023-04-07T12:58:00;11.80;99.90
1878;DHT22;939;51.426;6.972;2023-04-07T13:00:34;11.80;99.90
1878;DHT22;939;51.426;6.972;2023-04-07T13:03:08;11.70;99.90
1878;DHT22;939;51.426;6.972;2023-04-07T13:05:36;11.70;99.90
1878;DHT22;939;51.426;6.972;2023-04-07T13:08:04;11.80;99.90
1878;DHT22;939;51.426;6.972;2023-04-07T13:10:46;11.70;99.90
1878;DHT22;939;51.426;6.972;2023-04-07T13:13:13;11.80;99.90
1878;DHT22;939;51.426;6.972;2023-04-07T13:15:45;11.80;99.90
1878;DHT22;939;51.426;6.972;2023-04-07T13:18:14;11.70;99.90
1878;DHT22;939;51.426;6.972;2023-04-07T13:20:44;11.70;99.90
1878;DHT22;939;51.426;6.972;2023-04-07T13:23:12;11.70;99.90
1878;DHT22;939;51.426;6.972;2023-04-07T13:25:51;11.80;99.90
1878;DHT22;939;51.426;6.972;2023-04-07T13:28:34;11.80;99.90
1878;DHT22;939;51.426;6.972;2023-04-07T13:31:01;11.80;99.90
1878;DHT22;939;51.426;6.972;2023-04-07T13:33:30;11.80;99.90
1878;DHT22;939;51.426;6.972;2023-04-07T13:35:57;11.80;99.90
1878;DHT22;939;51.426;6.972;2023-04-07T13:38:24;11.70;99.90
1878;DHT22;939;51.426;6.972;2023-04-07T13:40:51;11.80;99.90
1878;DHT22;939;51.426;6.972;2023-04-07T13:43:18;11.60;99.90
1878;DHT22;939;51.426;6.972;2023-04-07T13:45:45;11.70;99.90
1878;DHT22;939;51.426;6.972;2023-04-07T13:48:12;11.70;99.90
1878;DHT22;939;51.426;6.972;2023-04-07T13:50:52;11.70;99.90
1878;DHT22;939;51.426;6.972;2023-04-07T13:53:22;11.70;99.90
1878;DHT22;939;51.426;6.972;2023-04-07T13:55:49;11.70;99.90
1878;DHT22;939;51.426;6.972;2023-04-07T13:58:16;11.60;99.90
1878;DHT22;939;51.426;6.972;2023-04-07T14:00:43;11.60;99.90
1878;DHT22;939;51.426;6.972;2023-04-07T14:03:10;11.40;99.90
1878;DHT22;939;51.426;6.972;2023-04-07T14:05:36;11.40;99.90
1878;DHT22;939;51.426;6.972;2023-04-07T14:08:10;11.40;99.90
1878;DHT22;939;51.426;6.972;2023-04-07T14:10:45;11.60;99.90
1878;DHT22;939;51.426;6.972;2023-04-07T14:13:15;11.60;99.90
1878;DHT22;939;51.426;6.972;2023-04-07T14:15:42;11.60;99.90
1878;DHT22;939;51.426;6.972;2023-04-07T14:18:09;11.60;99.90
1878;DHT22;939;51.426;6.972;2023-04-07T14:20:37;11.60;99.90
1878;DHT22;939;51.426;6.972;2023-04-07T14:23:05;11.60;99.90
1878;DHT22;939;51.426;6.972;2023-04-07T14:25:32;11.60;99.90
1878;DHT22;939;51.426;6.972;2023-04-07T14:27:59;11.60;99.90
1878;DHT22;939;51.426;6.972;2023-04-07T14:30:26;11.60;99.90
1878;DHT22;939;51.426;6.972;2023-04-07T14:32:52;11.60;99.90
1878;DHT22;939;51.426;6.972;2023-04-07T14:35:19;11.60;99.90
1878;DHT22;939;51.426;6.972;2023-04-07T14:37:47;11.70;99.90
1878;DHT22;939;51.426;6.972;2023-04-07T14:40:15;11.70;99.90
1878;DHT22;939;51.426;6.972;2023-04-07T14:42:42;11.80;99.90
1878;DHT22;939;51.426;6.972;2023-04-07T14:45:09;11.70;99.90
1878;DHT22;939;51.426;6.972;2023-04-07T14:47:37;11.70;99.90
1878;DHT22;939;51.426;6.972;2023-04-07T14:50:04;11.70;99.90
1878;DHT22;939;51.426;6.972;2023-04-07T14:52:31;11.70;99.90
1878;DHT22;939;51.426;6.972;2023-04-07T14:54:58;11.60;99.90
1878;DHT22;939;51.426;6.972;2023-04-07T14:57:27;11.60;99.90
1878;DHT22;939;51.426;6.972;2023-04-07T14:59:54;11.70;99.90
1878;DHT22;939;51.426;6.972;2023-04-07T15:02:21;11.70;99.90
1878;DHT22;939;51.426;6.972;2023-04-07T15:04:48;11.80;99.90
1878;DHT22;939;51.426;6.972;2023-04-07T15:07:14;11.80;99.90
1878;DHT22;939;51.426;6.972;2023-04-07T15:09:41;11.80;99.90
1878;DHT22;939;51.426;6.972;2023-04-07T15:12:08;11.80;99.90
1878;DHT22;939;51.426;6.972;2023-04-07T15:14:36;11.80;99.90
1878;DHT22;939;51.426;6.972;2023-04-07T15:17:03;11.90;99.90
1878;DHT22;939;51.426;6.972;2023-04-07T15:19:30;11.90;99.90
1878;DHT22;939;51.426;6.972;2023-04-07T15:21:57;11.90;99.90
1878;DHT22;939;51.426;6.972;2023-04-07T15:24:24;11.90;99.90
1878;DHT22;939;51.426;6.972;2023-04-07T15:26:50;11.90;99.90
1878;DHT22;939;51.426;6.972;2023-04-07T15:29:17;11.90;99.90
1878;DHT22;939;51.426;6.972;2023-04-07T15:31:45;11.90;99.90
1878;DHT22;939;51.426;6.972;2023-04-07T15:34:12;11.80;99.90
1878;DHT22;939;51.426;6.972;2023-04-07T15:36:39;11.60;99.90
1878;DHT22;939;51.426;6.972;2023-04-07T15:39:06;11.60;99.90
1878;DHT22;939;51.426;6.972;2023-04-07T15:41:33;11.60;99.90
1878;DHT22;939;51.426;6.972;2023-04-07T15:44:01;11.50;99.90
1878;DHT22;939;51.426;6.972;2023-04-07T15:46:28;11.30;99.90
1878;DHT22;939;51.426;6.972;2023-04-07T15:48:58;11.40;99.90
1878;DHT22;939;51.426;6.972;2023-04-07T15:51:24;11.50;99.90
1878;DHT22;939;51.426;6.972;2023-04-07T15:53:52;11.40;99.90
1878;DHT22;939;51.426;6.972;2023-04-07T15:56:19;11.40;99.90
1878;DHT22;939;51.426;6.972;2023-04-07T15:58:49;11.30;99.90
1878;DHT22;939;51.426;6.972;2023-04-07T16:01:15;11.40;99.90
1878;DHT22;939;51.426;6.972;2023-04-07T16:03:42;11.40;99.90
1878;DHT22;939;51.426;6.972;2023-04-07T16:06:11;11.40;99.90
1878;DHT22;939;51.426;6.972;2023-04-07T16:08:37;11.50;99.90
1878;DHT22;939;51.426;6.972;2023-04-07T16:11:04;11.50;99.90
1878;DHT22;939;51.426;6.972;2023-04-07T16:13:31;11.30;99.90
1878;DHT22;939;51.426;6.972;2023-04-07T16:15:58;11.40;99.90
1878;DHT22;939;51.426;6.972;2023-04-07T16:18:25;11.50;99.90
1878;DHT22;939;51.426;6.972;2023-04-07T16:20:52;11.50;99.90
1878;DHT22;939;51.426;6.972;2023-04-07T16:23:20;11.60;99.90
1878;DHT22;939;51.426;6.972;2023-04-07T16:25:47;11.60;99.90
1878;DHT22;939;51.426;6.972;2023-04-07T16:28:14;11.60;99.90
1878;DHT22;939;51.426;6.972;2023-04-07T16:30:41;11.60;99.90
1878;DHT22;939;51.426;6.972;2023-04-07T16:33:08;11.70;99.90
1878;DHT22;939;51.426;6.972;2023-04-07T16:35:35;11.50;99.90
1878;DHT22;939;51.426;6.972;2023-04-07T16:38:02;11.60;99.90
1878;DHT22;939;51.426;6.972;2023-04-07T16:40:32;11.60;99.90
1878;DHT22;939;51.426;6.972;2023-04-07T16:42:59;11.60;99.90
1878;DHT22;939;51.426;6.972;2023-04-07T16:45:25;11.40;99.90
1878;DHT22;939;51.426;6.972;2023-04-07T16:47:52;11.50;99.90
1878;DHT22;939;51.426;6.972;2023-04-07T16:50:20;11.60;99.90
1878;DHT22;939;51.426;6.972;2023-04-07T16:52:47;11.50;99.90
1878;DHT22;939;51.426;6.972;2023-04-07T16:55:13;11.30;99.90
1878;DHT22;939;51.426;6.972;2023-04-07T16:57:42;11.30;99.90
1878;DHT22;939;51.426;6.972;2023-04-07T17:00:09;11.40;99.90
1878;DHT22;939;51.426;6.972;2023-04-07T17:02:36;11.20;99.90
1878;DHT22;939;51.426;6.972;2023-04-07T17:05:04;11.30;99.90
1878;DHT22;939;51.426;6.972;2023-04-07T17:07:31;11.40;99.90
1878;DHT22;939;51.426;6.972;2023-04-07T17:09:58;11.40;99.90
1878;DHT22;939;51.426;6.972;2023-04-07T17:12:24;11.50;99.90
1878;DHT22;939;51.426;6.972;2023-04-07T17:14:53;11.50;99.90
1878;DHT22;939;51.426;6.972;2023-04-07T17:17:20;11.40;99.90
1878;DHT22;939;51.426;6.972;2023-04-07T17:19:47;11.50;99.90
1878;DHT22;939;51.426;6.972;2023-04-07T17:22:14;11.50;99.90
1878;DHT22;939;51.426;6.972;2023-04-07T17:24:41;11.40;99.90
